X  Tanca Dades meteorològiques de l'aviació METAR     EHBK Maastricht Aachen Airport
Temperatura
12°C Temperatura
12°C Rosada
100% Humitat



Vent
4 M/S
9 MPH
14 KM/H
8 NUS



250°
OSO
Condicions actuals

Llum Pluja Llum Pluja
Pressió 1014.9 (hPa) - 29.97 (inHg)
Visibilitat 0.5 (milla) - 0.8 (km)
Aeroport
Codi aeroport EHBK

Ubicació: Maastricht Aachen Airport
Distància: 26 (km)

Metar:
EHBK 250355Z AUTO 25008KT 210V280 0750 R21/1200N -DZ VV001 12/12 Q1015 REDZ

Temps: 25-05-2024 05:55 CEST